createdAt,value
2023-05-07T00:04:12.047Z,1.50
2023-05-07T00:09:13.923Z,1.40
2023-05-07T00:14:15.952Z,1.20
2023-05-07T00:19:17.710Z,1.20
2023-05-07T00:24:19.399Z,1.10
2023-05-07T00:29:21.155Z,1.00
2023-05-07T00:34:23.339Z,0.90
2023-05-07T00:39:25.094Z,0.80
2023-05-07T00:44:27.050Z,0.70
2023-05-07T00:49:40.981Z,0.70
2023-05-07T00:54:43.216Z,0.70
2023-05-07T00:59:45.013Z,0.70
2023-05-07T01:04:46.734Z,0.60
2023-05-07T01:09:48.955Z,0.70
2023-05-07T01:14:51.647Z,0.80
2023-05-07T01:19:54.249Z,0.80
2023-05-07T01:24:57.080Z,0.90
2023-05-07T01:29:58.812Z,0.90
2023-05-07T01:35:02.054Z,0.90
2023-05-07T01:40:04.913Z,1.00
2023-05-07T01:45:07.401Z,1.00
2023-05-07T01:50:11.164Z,0.90
2023-05-07T01:55:13.605Z,0.80
2023-05-07T02:00:15.732Z,0.70
2023-05-07T02:05:17.496Z,0.60
2023-05-07T02:10:19.241Z,0.50
2023-05-07T02:15:21.199Z,0.60
2023-05-07T02:20:22.930Z,0.50
2023-05-07T02:25:24.758Z,0.50
2023-05-07T02:30:27.094Z,0.50
2023-05-07T02:35:28.834Z,0.50
2023-05-07T02:40:30.636Z,0.70
2023-05-07T02:45:33.755Z,0.90
2023-05-07T02:50:35.823Z,1.00
2023-05-07T02:55:37.500Z,1.20
2023-05-07T03:00:39.210Z,1.20
2023-05-07T03:05:41.223Z,1.50
2023-05-07T03:10:43.026Z,1.70
2023-05-07T03:15:45.140Z,1.90
2023-05-07T03:20:47.542Z,2.00
2023-05-07T03:25:49.940Z,2.40
2023-05-07T03:30:51.847Z,2.70
2023-05-07T03:35:53.580Z,3.40
2023-05-07T03:40:55.494Z,4.20
2023-05-07T03:45:57.244Z,5.40
2023-05-07T03:50:59.753Z,6.20
2023-05-07T03:56:01.517Z,7.10
2023-05-07T04:01:03.851Z,8.00
2023-05-07T04:06:05.913Z,7.80
2023-05-07T04:11:07.720Z,9.30
2023-05-07T04:16:09.890Z,9.50
2023-05-07T04:21:16.785Z,9.70
2023-05-07T04:26:18.467Z,9.10
2023-05-07T04:31:20.983Z,8.10
2023-05-07T04:36:22.776Z,7.40
2023-05-07T04:41:24.516Z,6.80
2023-05-07T04:46:26.439Z,6.50
2023-05-07T04:51:29.029Z,7.30
2023-05-07T04:56:31.014Z,8.90
2023-05-07T05:01:32.812Z,8.90
2023-05-07T05:06:34.566Z,9.70
2023-05-07T05:11:36.287Z,9.90
2023-05-07T05:16:38.409Z,9.50
2023-05-07T05:21:40.388Z,9.90
2023-05-07T05:26:42.166Z,11.00
2023-05-07T05:31:43.927Z,10.60
2023-05-07T05:36:45.851Z,10.90
2023-05-07T05:41:47.577Z,11.70
2023-05-07T05:46:50.953Z,16.00
2023-05-07T05:51:52.826Z,19.80
2023-05-07T05:56:54.736Z,21.50
2023-05-07T06:01:56.626Z,19.20
2023-05-07T06:06:58.581Z,16.10
2023-05-07T06:12:01.035Z,15.10
2023-05-07T06:17:03.246Z,13.20
2023-05-07T06:22:05.259Z,12.20
2023-05-07T06:27:07.030Z,11.20
2023-05-07T06:32:10.477Z,11.00
2023-05-07T06:37:12.284Z,12.70
2023-05-07T06:42:14.173Z,15.40
2023-05-07T06:47:16.627Z,19.40
2023-05-07T06:52:18.420Z,22.80
2023-05-07T06:57:20.147Z,20.90
2023-05-07T07:02:21.942Z,22.70
2023-05-07T07:07:23.844Z,21.20
2023-05-07T07:12:27.117Z,21.40
2023-05-07T07:17:29.819Z,21.80
2023-05-07T07:22:31.563Z,22.00
2023-05-07T07:27:33.340Z,23.70
2023-05-07T07:32:35.950Z,23.90
2023-05-07T07:37:37.897Z,24.50
2023-05-07T07:42:39.670Z,22.90
2023-05-07T07:47:41.873Z,21.40
2023-05-07T07:52:43.646Z,20.40
2023-05-07T07:57:45.520Z,18.40
2023-05-07T08:02:47.562Z,19.30
2023-05-07T08:07:52.977Z,20.50
2023-05-07T08:12:54.921Z,24.50
2023-05-07T08:17:58.744Z,23.70
2023-05-07T08:23:00.686Z,24.10
2023-05-07T08:28:02.713Z,23.20
2023-05-07T08:33:04.512Z,23.10
2023-05-07T08:38:06.383Z,26.00
2023-05-07T08:43:08.697Z,23.70
2023-05-07T08:48:16.525Z,23.90
2023-05-07T08:53:18.735Z,24.10
2023-05-07T08:58:20.579Z,23.90
2023-05-07T09:03:22.519Z,22.40
2023-05-07T09:08:27.737Z,20.70
2023-05-07T09:13:30.086Z,20.20
2023-05-07T09:18:32.107Z,24.30
2023-05-07T09:23:33.871Z,23.30
2023-05-07T09:28:35.740Z,23.40
2023-05-07T09:33:37.857Z,22.50
2023-05-07T09:38:39.965Z,23.10
2023-05-07T09:43:41.927Z,25.90
2023-05-07T09:48:45.144Z,22.80
2023-05-07T09:53:47.313Z,20.50
2023-05-07T09:58:50.900Z,22.20
2023-05-07T10:03:53.554Z,22.30
2023-05-07T10:08:57.685Z,21.00
2023-05-07T10:13:59.714Z,23.40
2023-05-07T10:19:06.415Z,20.20
2023-05-07T10:24:20.548Z,17.90
2023-05-07T10:29:28.347Z,17.20
2023-05-07T10:34:37.251Z,14.70
2023-05-07T10:39:39.368Z,13.30
2023-05-07T10:44:41.310Z,13.60
2023-05-07T10:49:43.068Z,13.80
2023-05-07T10:54:45.642Z,14.00
2023-05-07T10:59:47.564Z,13.70
2023-05-07T11:05:22.379Z,13.50
2023-05-07T11:10:44.589Z,13.40
2023-05-07T11:15:48.394Z,12.70
2023-05-07T11:21:00.689Z,12.60
2023-05-07T11:26:07.231Z,12.50
2023-05-07T11:31:10.313Z,12.90
2023-05-07T11:36:12.566Z,13.10
2023-05-07T11:41:14.399Z,13.00
2023-05-07T11:46:16.251Z,13.30
2023-05-07T11:51:23.221Z,12.80
2023-05-07T11:56:25.038Z,12.70
2023-05-07T12:01:26.756Z,12.90
2023-05-07T12:06:28.503Z,13.10
2023-05-07T12:11:30.284Z,13.50
2023-05-07T12:16:32.461Z,13.00
2023-05-07T12:21:35.026Z,12.60
2023-05-07T12:26:41.692Z,12.90
2023-05-07T12:31:44.350Z,13.00
2023-05-07T12:36:48.952Z,12.60
2023-05-07T12:41:59.544Z,12.50
2023-05-07T12:47:04.595Z,12.50
2023-05-07T12:52:07.116Z,12.40
2023-05-07T12:57:10.568Z,12.30
2023-05-07T13:02:12.423Z,12.50
2023-05-07T13:07:14.168Z,12.30
2023-05-07T13:12:15.857Z,12.40
2023-05-07T13:17:17.656Z,12.30
2023-05-07T13:22:19.676Z,12.10
2023-05-07T13:27:21.689Z,12.00
2023-05-07T13:32:23.840Z,12.30
2023-05-07T13:37:25.747Z,12.50
2023-05-07T13:42:27.507Z,12.60
2023-05-07T13:47:29.288Z,12.40
2023-05-07T13:52:31.198Z,12.60
2023-05-07T13:57:34.050Z,12.30
2023-05-07T14:02:36.040Z,12.10
2023-05-07T14:07:38.261Z,12.30
2023-05-07T14:12:40.178Z,12.40
2023-05-07T14:17:42.005Z,12.20
2023-05-07T14:22:44.054Z,12.20
2023-05-07T14:27:45.797Z,12.30
2023-05-07T14:32:47.590Z,12.20
2023-05-07T14:37:49.384Z,12.20
2023-05-07T14:42:51.171Z,12.10
2023-05-07T14:47:52.951Z,12.20
2023-05-07T14:52:54.692Z,11.90
2023-05-07T14:57:57.064Z,11.80
2023-05-07T15:03:08.955Z,11.80
2023-05-07T15:08:11.134Z,11.70
2023-05-07T15:13:15.864Z,11.70
2023-05-07T15:18:17.979Z,11.80
2023-05-07T15:23:19.949Z,11.80
2023-05-07T15:28:21.835Z,11.70
2023-05-07T15:33:24.578Z,11.70
2023-05-07T15:38:28.835Z,11.60
2023-05-07T15:43:30.634Z,11.60
2023-05-07T15:48:32.518Z,11.50
2023-05-07T15:53:34.857Z,11.40
2023-05-07T15:58:36.835Z,11.30
2023-05-07T16:03:40.332Z,11.20
2023-05-07T16:08:44.112Z,11.10
2023-05-07T16:13:45.859Z,11.10
2023-05-07T16:18:47.675Z,11.10
2023-05-07T16:23:50.990Z,11.00
2023-05-07T16:28:52.938Z,11.00
2023-05-07T16:33:54.675Z,10.80
2023-05-07T16:38:56.830Z,10.80
2023-05-07T16:43:59.115Z,10.70
2023-05-07T16:49:00.852Z,10.70
2023-05-07T16:54:03.153Z,10.60
2023-05-07T16:59:05.009Z,10.50
2023-05-07T17:04:06.870Z,10.40
2023-05-07T17:09:09.428Z,10.40
2023-05-07T17:14:11.542Z,10.30
2023-05-07T17:19:13.302Z,10.20
2023-05-07T17:24:17.038Z,10.10
2023-05-07T17:29:20.002Z,9.90
2023-05-07T17:34:22.981Z,9.70
2023-05-07T17:39:24.951Z,9.70
2023-05-07T17:44:26.683Z,9.50
2023-05-07T17:49:28.750Z,9.40
2023-05-07T17:54:30.662Z,9.00
2023-05-07T17:59:33.194Z,8.80
2023-05-07T18:04:34.963Z,8.60
2023-05-07T18:09:36.722Z,8.40
2023-05-07T18:14:38.483Z,8.20
2023-05-07T18:19:40.245Z,8.00
2023-05-07T18:24:42.141Z,7.80
2023-05-07T18:29:43.920Z,7.60
2023-05-07T18:34:45.691Z,7.40
2023-05-07T18:39:47.482Z,7.30
2023-05-07T18:44:50.707Z,7.10
2023-05-07T18:49:52.516Z,6.90
2023-05-07T18:54:54.362Z,6.70
2023-05-07T18:59:56.838Z,6.60
2023-05-07T19:04:58.636Z,6.40
2023-05-07T19:10:05.668Z,6.20
2023-05-07T19:15:22.557Z,6.10
2023-05-07T19:20:24.370Z,6.00
2023-05-07T19:25:26.340Z,5.90
2023-05-07T19:30:28.154Z,5.80
2023-05-07T19:35:31.355Z,5.60
2023-05-07T19:40:33.067Z,5.50
2023-05-07T19:45:35.210Z,5.30
2023-05-07T19:50:37.538Z,5.30
2023-05-07T19:55:39.467Z,5.10
2023-05-07T20:00:43.238Z,5.00
2023-05-07T20:05:47.388Z,4.90
2023-05-07T20:10:51.567Z,4.80
2023-05-07T20:16:00.593Z,4.80
2023-05-07T20:21:02.536Z,4.70
2023-05-07T20:26:04.473Z,4.50
2023-05-07T20:31:06.208Z,4.40
2023-05-07T20:36:08.853Z,4.30
2023-05-07T20:41:12.648Z,4.20
2023-05-07T20:46:14.797Z,4.20
2023-05-07T20:51:16.602Z,4.20
2023-05-07T20:56:19.833Z,4.20
2023-05-07T21:01:21.798Z,4.20
2023-05-07T21:06:23.736Z,4.20
2023-05-07T21:11:25.508Z,4.00
2023-05-07T21:16:27.519Z,3.90
2023-05-07T21:21:29.244Z,4.00
2023-05-07T21:26:31.430Z,4.00
2023-05-07T21:31:33.175Z,4.20
2023-05-07T21:36:34.926Z,4.00
2023-05-07T21:41:37.018Z,3.80
2023-05-07T21:46:38.761Z,3.70
2023-05-07T21:51:41.317Z,3.50
2023-05-07T21:56:43.079Z,3.40
2023-05-07T22:01:44.862Z,3.40
2023-05-07T22:06:46.759Z,3.20
2023-05-07T22:11:48.530Z,3.00
2023-05-07T22:16:50.378Z,2.90
2023-05-07T22:21:52.162Z,3.00
2023-05-07T22:26:54.087Z,3.00
2023-05-07T22:31:56.307Z,3.20
2023-05-07T22:36:58.038Z,3.00
2023-05-07T22:42:00.586Z,2.80
2023-05-07T22:47:02.358Z,2.80
2023-05-07T22:52:04.226Z,2.60
2023-05-07T22:57:06.121Z,2.50
2023-05-07T23:02:08.094Z,2.20
2023-05-07T23:07:09.891Z,2.10
2023-05-07T23:12:11.658Z,2.10
2023-05-07T23:17:13.419Z,2.10
2023-05-07T23:22:16.072Z,2.10
2023-05-07T23:27:18.228Z,2.20
2023-05-07T23:32:20.293Z,2.20
2023-05-07T23:37:22.795Z,2.20
2023-05-07T23:42:24.574Z,2.20
2023-05-07T23:47:26.306Z,2.30
2023-05-07T23:52:28.086Z,2.20
2023-05-07T23:57:29.861Z,2.20
